createdAt,value
2024-03-12T00:01:38.342Z,20.05
2024-03-12T00:04:09.368Z,21.23
2024-03-12T00:06:43.563Z,25.83
2024-03-12T00:11:43.780Z,26.58
2024-03-12T00:14:15.651Z,29.70
2024-03-12T00:16:46.272Z,32.90
2024-03-12T00:19:18.515Z,31.23
2024-03-12T00:21:50.949Z,24.52
2024-03-12T00:24:20.782Z,35.47
2024-03-12T00:26:51.353Z,33.15
2024-03-12T00:29:21.189Z,36.03
2024-03-12T00:31:52.599Z,48.15
2024-03-12T00:34:22.411Z,34.13
2024-03-12T00:36:54.761Z,35.45
2024-03-12T00:39:25.398Z,39.47
2024-03-12T00:41:55.694Z,39.42
2024-03-12T00:44:25.921Z,40.55
2024-03-12T00:46:58.531Z,39.33
2024-03-12T00:49:31.958Z,34.28
2024-03-12T00:52:05.099Z,35.72
2024-03-12T00:54:37.184Z,29.90
2024-03-12T00:57:08.205Z,34.20
2024-03-12T00:59:38.532Z,31.35
2024-03-12T01:02:08.443Z,33.58
2024-03-12T01:04:38.330Z,33.33
2024-03-12T01:07:12.300Z,32.88
2024-03-12T01:09:43.198Z,34.72
2024-03-12T01:12:13.002Z,38.05
2024-03-12T01:14:42.976Z,38.00
2024-03-12T01:17:12.804Z,38.22
2024-03-12T01:19:42.901Z,42.05
2024-03-12T01:22:16.013Z,47.92
2024-03-12T01:24:46.760Z,45.70
2024-03-12T01:27:16.584Z,55.63
2024-03-12T01:29:49.590Z,61.88
2024-03-12T01:32:21.687Z,59.97
2024-03-12T01:34:51.587Z,65.35
2024-03-12T01:37:25.850Z,62.40
2024-03-12T01:39:56.424Z,76.85
2024-03-12T01:42:26.229Z,75.15
2024-03-12T01:44:56.534Z,79.28
2024-03-12T01:47:26.454Z,84.65
2024-03-12T01:49:56.249Z,79.60
2024-03-12T01:52:30.495Z,77.53
2024-03-12T01:55:00.421Z,75.15
2024-03-12T01:57:30.220Z,82.70
2024-03-12T01:59:59.952Z,85.20
2024-03-12T02:02:27.153Z,88.82
2024-03-12T02:04:57.868Z,86.88
2024-03-12T02:07:30.903Z,82.32
2024-03-12T02:10:04.675Z,76.18
2024-03-12T02:12:34.840Z,92.45
2024-03-12T02:15:06.330Z,82.47
2024-03-12T02:17:36.292Z,78.63
2024-03-12T02:20:09.687Z,78.53
2024-03-12T02:22:42.044Z,80.90
2024-03-12T02:25:14.822Z,92.07
2024-03-12T02:27:44.611Z,84.40
2024-03-12T02:30:15.045Z,92.15
2024-03-12T02:32:47.460Z,93.03
2024-03-12T02:35:18.124Z,86.78
2024-03-12T02:37:48.241Z,83.07
2024-03-12T02:40:21.955Z,82.18
2024-03-12T02:42:51.768Z,88.53
2024-03-12T02:45:22.756Z,87.28
2024-03-12T02:47:52.597Z,87.03
2024-03-12T02:50:23.241Z,89.30
2024-03-12T02:52:52.976Z,93.65
2024-03-12T02:55:25.517Z,89.53
2024-03-12T02:57:55.336Z,87.80
2024-03-12T03:00:25.358Z,86.50
2024-03-12T03:02:55.916Z,73.55
2024-03-12T03:05:25.963Z,74.85
2024-03-12T03:07:56.107Z,81.47
2024-03-12T03:10:28.510Z,82.18
2024-03-12T03:12:58.485Z,77.53
2024-03-12T03:15:28.352Z,73.25
2024-03-12T03:17:58.300Z,73.13
2024-03-12T03:20:28.231Z,82.88
2024-03-12T03:22:58.014Z,73.95
2024-03-12T03:25:30.536Z,68.90
2024-03-12T03:28:00.358Z,63.83
2024-03-12T03:30:30.293Z,69.57
2024-03-12T03:32:57.588Z,64.32
2024-03-12T03:35:27.413Z,58.22
2024-03-12T03:37:57.709Z,69.78
2024-03-12T03:40:30.303Z,66.57
2024-03-12T03:43:00.057Z,66.60
2024-03-12T03:45:29.931Z,61.08
2024-03-12T03:47:59.998Z,65.20
2024-03-12T03:50:29.949Z,59.35
2024-03-12T03:52:59.907Z,58.80
2024-03-12T03:55:32.409Z,55.45
2024-03-12T03:58:02.351Z,57.05
2024-03-12T04:00:37.051Z,54.15
2024-03-12T04:03:08.034Z,47.20
2024-03-12T04:05:37.851Z,49.72
2024-03-12T04:08:09.005Z,46.45
2024-03-12T04:10:43.744Z,40.80
2024-03-12T04:13:15.794Z,41.80
2024-03-12T04:15:46.602Z,41.95
2024-03-12T04:18:20.327Z,41.08
2024-03-12T04:20:50.282Z,40.72
2024-03-12T04:23:20.014Z,37.92
2024-03-12T04:25:54.552Z,41.45
2024-03-12T04:28:24.271Z,37.28
2024-03-12T04:30:54.063Z,59.95
2024-03-12T04:33:25.588Z,42.00
2024-03-12T04:35:56.899Z,37.20
2024-03-12T04:38:27.163Z,41.78
2024-03-12T04:41:00.203Z,36.83
2024-03-12T04:43:29.962Z,42.00
2024-03-12T04:45:59.817Z,39.60
2024-03-12T04:48:29.613Z,37.80
2024-03-12T04:50:59.440Z,37.47
2024-03-12T04:53:29.593Z,44.08
2024-03-12T04:56:01.940Z,42.63
2024-03-12T04:58:32.807Z,38.15
2024-03-12T05:01:03.022Z,38.65
2024-03-12T05:03:36.008Z,36.65
2024-03-12T05:06:06.489Z,34.78
2024-03-12T05:08:36.218Z,39.22
2024-03-12T05:11:19.441Z,38.70
2024-03-12T05:13:49.737Z,33.67
2024-03-12T05:16:34.261Z,38.20
2024-03-12T05:21:52.610Z,39.50
2024-03-12T05:24:28.447Z,44.30
2024-03-12T05:27:17.122Z,42.38
2024-03-12T05:29:59.638Z,52.03
2024-03-12T05:32:55.552Z,48.22
2024-03-12T05:35:32.807Z,43.15
2024-03-12T05:38:12.140Z,43.38
2024-03-12T05:40:58.178Z,43.15
2024-03-12T05:43:42.962Z,51.13
2024-03-12T05:46:25.226Z,42.90
2024-03-12T05:48:55.188Z,41.95
2024-03-12T05:51:27.704Z,43.60
2024-03-12T05:53:59.669Z,42.25
2024-03-12T05:56:30.715Z,48.33
2024-03-12T05:59:03.082Z,47.05
2024-03-12T06:01:33.013Z,44.20
2024-03-12T06:04:04.486Z,44.72
2024-03-12T06:06:35.448Z,42.85
2024-03-12T06:09:05.234Z,50.50
2024-03-12T06:11:36.150Z,38.17
2024-03-12T06:14:08.705Z,38.65
2024-03-12T06:16:38.519Z,44.10
2024-03-12T06:19:08.410Z,41.47
2024-03-12T06:21:38.315Z,45.78
2024-03-12T06:24:09.780Z,42.25
2024-03-12T06:26:40.110Z,36.28
2024-03-12T06:29:15.312Z,39.22
2024-03-12T06:31:46.372Z,42.95
2024-03-12T06:34:17.535Z,40.47
2024-03-12T06:36:47.613Z,34.83
2024-03-12T06:39:19.206Z,42.22
2024-03-12T06:41:53.027Z,42.33
2024-03-12T06:44:27.051Z,37.00
2024-03-12T06:46:56.918Z,43.55
2024-03-12T06:49:26.996Z,44.10
2024-03-12T06:51:56.887Z,46.17
2024-03-12T06:54:27.989Z,44.10
2024-03-12T06:56:58.049Z,62.28
2024-03-12T06:59:32.114Z,56.42
2024-03-12T07:02:01.957Z,47.92
2024-03-12T07:04:36.366Z,54.10
2024-03-12T07:07:07.596Z,45.60
2024-03-12T07:09:39.397Z,47.00
2024-03-12T07:12:10.407Z,45.70
2024-03-12T07:14:46.865Z,43.50
2024-03-12T07:17:17.478Z,44.28
2024-03-12T07:19:48.910Z,39.55
2024-03-12T07:22:19.004Z,43.83
2024-03-12T07:24:49.238Z,44.17
2024-03-12T07:27:19.686Z,38.05
2024-03-12T07:29:52.092Z,42.25
2024-03-12T07:32:22.025Z,40.25
2024-03-12T07:34:51.799Z,48.15
2024-03-12T07:37:22.323Z,42.63
2024-03-12T07:39:52.138Z,42.13
2024-03-12T07:42:22.679Z,42.17
2024-03-12T07:44:55.169Z,43.63
2024-03-12T07:47:25.593Z,44.13
2024-03-12T07:49:55.863Z,40.80
2024-03-12T07:52:26.105Z,46.05
2024-03-12T07:54:56.586Z,44.13
2024-03-12T07:57:27.861Z,46.03
2024-03-12T08:00:00.725Z,46.65
2024-03-12T08:02:31.486Z,42.47
2024-03-12T08:05:01.303Z,40.83
2024-03-12T08:07:31.564Z,41.95
2024-03-12T08:10:06.798Z,42.22
2024-03-12T08:12:38.568Z,43.17
2024-03-12T08:15:14.585Z,42.45
2024-03-12T08:17:47.836Z,41.55
2024-03-12T08:20:19.627Z,40.55
2024-03-12T08:22:49.657Z,43.42
2024-03-12T08:25:21.912Z,41.92
2024-03-12T08:27:52.218Z,44.70
2024-03-12T08:30:24.637Z,42.50
2024-03-12T08:32:54.464Z,43.13
2024-03-12T08:35:24.309Z,44.85
2024-03-12T08:37:54.225Z,45.85
2024-03-12T08:40:24.038Z,54.53
2024-03-12T08:43:01.888Z,49.20
2024-03-12T08:45:37.089Z,57.55
2024-03-12T08:48:07.644Z,50.20
2024-03-12T08:50:37.487Z,56.38
2024-03-12T08:53:07.628Z,46.75
2024-03-12T08:55:39.252Z,52.95
2024-03-12T08:58:09.379Z,45.10
2024-03-12T09:00:44.633Z,53.85
2024-03-12T09:03:17.359Z,43.28
2024-03-12T09:05:47.212Z,49.15
2024-03-12T09:08:20.065Z,46.90
2024-03-12T09:10:51.471Z,54.17
2024-03-12T09:13:21.633Z,49.42
2024-03-12T09:15:54.041Z,48.42
2024-03-12T09:18:27.137Z,54.60
2024-03-12T09:20:58.031Z,53.90
2024-03-12T09:23:30.623Z,50.63
2024-03-12T09:26:01.300Z,47.38
2024-03-12T09:28:31.153Z,48.03
2024-03-12T09:31:07.705Z,46.28
2024-03-12T09:33:37.550Z,47.53
2024-03-12T09:36:08.038Z,51.30
2024-03-12T09:38:37.830Z,44.30
2024-03-12T09:41:09.634Z,51.30
2024-03-12T09:43:40.455Z,52.60
2024-03-12T09:46:13.144Z,44.78
2024-03-12T09:48:44.090Z,46.72
2024-03-12T09:51:14.044Z,51.42
2024-03-12T09:53:46.421Z,45.35
2024-03-12T09:56:18.344Z,37.17
2024-03-12T09:58:49.492Z,47.75
2024-03-12T10:01:24.424Z,40.70
2024-03-12T10:03:57.316Z,43.60
2024-03-12T10:06:27.332Z,32.97
2024-03-12T10:09:01.197Z,38.65
2024-03-12T10:11:31.122Z,32.47
2024-03-12T10:14:05.563Z,34.30
2024-03-12T10:16:41.717Z,32.88
2024-03-12T10:19:16.207Z,36.15
2024-03-12T10:21:47.395Z,32.88
2024-03-12T10:24:19.177Z,36.65
2024-03-12T10:26:49.418Z,33.47
2024-03-12T10:29:20.732Z,33.58
2024-03-12T10:31:53.039Z,34.58
2024-03-12T10:34:22.998Z,34.33
2024-03-12T10:36:53.414Z,35.60
2024-03-12T10:39:33.783Z,35.13
2024-03-12T10:42:05.334Z,33.33
2024-03-12T10:44:37.974Z,40.83
2024-03-12T10:47:12.316Z,39.67
2024-03-12T10:49:44.946Z,40.08
2024-03-12T10:52:15.818Z,40.08
2024-03-12T10:55:02.186Z,39.17
2024-03-12T10:57:36.009Z,36.92
2024-03-12T11:00:09.627Z,36.30
2024-03-12T11:02:43.935Z,42.10
2024-03-12T11:05:13.867Z,39.50
2024-03-12T11:07:46.052Z,36.90
2024-03-12T11:10:16.549Z,39.25
2024-03-12T11:12:46.716Z,41.80
2024-03-12T11:15:17.237Z,37.45
2024-03-12T11:17:53.288Z,42.78
2024-03-12T11:20:28.119Z,40.97
2024-03-12T11:23:02.115Z,38.20
2024-03-12T11:25:36.625Z,36.35
2024-03-12T11:31:03.177Z,35.72
2024-03-12T11:33:56.052Z,40.53
2024-03-12T11:36:30.676Z,38.00
2024-03-12T11:39:02.764Z,50.75
2024-03-12T11:42:07.222Z,74.95
2024-03-12T11:44:50.628Z,55.20
2024-03-12T11:47:36.466Z,35.83
2024-03-12T11:50:36.078Z,33.80
2024-03-12T11:53:19.647Z,33.53
2024-03-12T11:55:59.407Z,30.83
2024-03-12T11:58:34.180Z,35.70
2024-03-12T12:01:04.597Z,37.00
2024-03-12T12:03:36.134Z,32.17
2024-03-12T12:06:11.152Z,31.70
2024-03-12T12:08:49.611Z,35.17
2024-03-12T12:11:23.702Z,33.95
2024-03-12T12:14:00.573Z,31.92
2024-03-12T12:16:31.607Z,32.28
2024-03-12T12:19:07.598Z,33.70
2024-03-12T12:21:40.557Z,36.47
2024-03-12T12:24:12.470Z,33.20
2024-03-12T12:26:42.452Z,34.67
2024-03-12T12:29:13.864Z,37.53
2024-03-12T12:31:43.900Z,39.67
2024-03-12T12:34:14.276Z,37.47
2024-03-12T12:36:51.410Z,39.55
2024-03-12T12:39:25.004Z,40.03
2024-03-12T12:42:00.740Z,39.03
2024-03-12T12:44:31.564Z,41.67
2024-03-12T12:47:04.331Z,43.75
2024-03-12T12:49:36.567Z,38.83
2024-03-12T12:52:09.245Z,36.05
2024-03-12T12:54:42.490Z,41.70
2024-03-12T12:57:14.261Z,40.40
2024-03-12T12:59:44.045Z,39.70
2024-03-12T13:02:19.998Z,40.35
2024-03-12T13:04:49.970Z,46.22
2024-03-12T13:07:34.416Z,35.30
2024-03-12T13:12:46.440Z,42.92
2024-03-12T13:15:35.671Z,38.47
2024-03-12T13:18:06.072Z,41.05
2024-03-12T13:20:35.858Z,44.58
2024-03-12T13:23:09.916Z,38.25
2024-03-12T13:28:09.969Z,40.83
2024-03-12T13:30:41.750Z,40.38
2024-03-12T13:33:11.995Z,39.75
2024-03-12T13:35:43.646Z,41.28
2024-03-12T13:38:17.032Z,43.13
2024-03-12T13:40:47.724Z,39.15
2024-03-12T13:43:17.684Z,40.47
2024-03-12T13:45:49.956Z,44.83
2024-03-12T13:48:19.756Z,40.35
2024-03-12T13:50:53.293Z,36.53
2024-03-12T13:53:28.420Z,40.28
2024-03-12T13:56:01.683Z,37.03
2024-03-12T13:58:31.617Z,41.20
2024-03-12T14:01:02.556Z,39.75
2024-03-12T14:03:33.556Z,37.88
2024-03-12T14:06:03.939Z,36.42
2024-03-12T14:08:36.338Z,32.65
2024-03-12T14:11:06.467Z,41.28
2024-03-12T14:13:36.710Z,35.80
2024-03-12T14:16:11.147Z,39.17
2024-03-12T14:18:44.056Z,53.20
2024-03-12T14:21:14.269Z,39.97
2024-03-12T14:23:48.935Z,38.90
2024-03-12T14:26:19.483Z,39.38
2024-03-12T14:28:49.485Z,40.60
2024-03-12T14:31:19.800Z,39.22
2024-03-12T14:33:50.023Z,37.60
2024-03-12T14:36:21.004Z,38.13
2024-03-12T14:38:55.137Z,40.70
2024-03-12T14:41:25.270Z,36.38
2024-03-12T14:43:55.060Z,39.63
2024-03-12T14:46:24.962Z,39.95
2024-03-12T14:48:56.352Z,41.67
2024-03-12T14:51:28.122Z,38.72
2024-03-12T14:54:00.462Z,38.53
2024-03-12T14:56:30.236Z,43.38
2024-03-12T14:59:00.082Z,36.72
2024-03-12T15:01:29.875Z,43.95
2024-03-12T15:04:01.484Z,35.45
2024-03-12T15:06:31.428Z,52.33
2024-03-12T15:09:05.081Z,43.08
2024-03-12T15:11:35.398Z,38.25
2024-03-12T15:14:07.556Z,40.75
2024-03-12T15:16:37.910Z,37.88
2024-03-12T15:19:07.993Z,41.50
2024-03-12T15:21:38.780Z,35.78
2024-03-12T15:24:11.535Z,38.58
2024-03-12T15:26:41.331Z,39.67
2024-03-12T15:29:11.169Z,40.08
2024-03-12T15:31:41.847Z,38.50
2024-03-12T15:34:11.664Z,42.97
2024-03-12T15:36:43.114Z,43.50
2024-03-12T15:39:16.146Z,39.30
2024-03-12T15:41:45.909Z,38.45
2024-03-12T15:44:18.714Z,37.75
2024-03-12T15:46:51.220Z,42.80
2024-03-12T15:49:21.856Z,46.42
2024-03-12T15:51:53.408Z,39.88
2024-03-12T15:54:26.370Z,39.88
2024-03-12T15:56:58.016Z,37.90
2024-03-12T15:59:27.842Z,37.67
2024-03-12T16:01:57.957Z,39.30
2024-03-12T16:04:28.815Z,39.00
2024-03-12T16:06:58.621Z,41.88
2024-03-12T16:09:30.979Z,37.20
2024-03-12T16:12:01.324Z,40.40
2024-03-12T16:14:31.270Z,44.00
2024-03-12T16:17:01.151Z,41.92
2024-03-12T16:19:32.489Z,41.97
2024-03-12T16:22:02.366Z,43.30
2024-03-12T16:24:34.837Z,41.92
2024-03-12T16:27:05.278Z,43.40
2024-03-12T16:29:36.422Z,42.45
2024-03-12T16:32:11.783Z,41.63
2024-03-12T16:34:41.555Z,43.72
2024-03-12T16:37:11.439Z,34.38
2024-03-12T16:39:43.910Z,42.72
2024-03-12T16:42:14.295Z,40.90
2024-03-12T16:44:44.171Z,42.30
2024-03-12T16:47:14.108Z,49.17
2024-03-12T16:49:43.863Z,42.53
2024-03-12T16:52:15.581Z,46.42
2024-03-12T16:54:48.872Z,41.97
2024-03-12T16:57:19.079Z,42.75
2024-03-12T16:59:53.443Z,44.42
2024-03-12T17:04:57.748Z,46.22
2024-03-12T17:07:28.598Z,44.08
2024-03-12T17:10:02.254Z,43.25
2024-03-12T17:12:35.326Z,41.05
2024-03-12T17:15:06.317Z,42.22
2024-03-12T17:17:37.717Z,44.35
2024-03-12T17:20:10.937Z,43.67
2024-03-12T17:22:43.753Z,43.30
2024-03-12T17:25:18.598Z,47.22
2024-03-12T17:27:50.640Z,47.92
2024-03-12T17:30:21.950Z,47.58
2024-03-12T17:32:52.519Z,41.15
2024-03-12T17:35:23.203Z,47.38
2024-03-12T17:37:57.205Z,43.85
2024-03-12T17:40:30.368Z,44.85
2024-03-12T17:43:01.953Z,39.60
2024-03-12T17:45:33.046Z,43.63
2024-03-12T17:48:05.991Z,41.80
2024-03-12T17:50:36.705Z,41.33
2024-03-12T17:53:08.017Z,41.83
2024-03-12T17:55:44.128Z,39.75
2024-03-12T17:58:17.729Z,39.55
2024-03-12T18:00:48.991Z,39.38
2024-03-12T18:03:21.100Z,37.92
2024-03-12T18:05:52.399Z,32.78
2024-03-12T18:08:26.830Z,37.20
2024-03-12T18:11:01.638Z,31.50
2024-03-12T18:13:32.127Z,27.88
2024-03-12T18:16:04.681Z,27.77
2024-03-12T18:18:37.109Z,26.77
2024-03-12T18:21:08.404Z,21.95
2024-03-12T18:23:38.397Z,24.63
2024-03-12T18:26:11.169Z,22.75
2024-03-12T18:28:45.802Z,15.75
2024-03-12T18:31:16.890Z,17.40
2024-03-12T18:33:50.013Z,14.50
2024-03-12T18:36:21.198Z,16.52
2024-03-12T18:38:51.574Z,18.30
2024-03-12T18:41:25.013Z,15.05
2024-03-12T18:43:55.832Z,17.08
2024-03-12T18:46:26.162Z,17.15
2024-03-12T18:48:58.564Z,21.00
2024-03-12T18:51:30.524Z,15.43
2024-03-12T18:54:03.652Z,18.02
2024-03-12T18:56:40.048Z,18.00
2024-03-12T18:59:11.562Z,25.02
2024-03-12T19:01:43.686Z,20.42
2024-03-12T19:04:14.181Z,27.23
2024-03-12T19:06:45.825Z,22.75
2024-03-12T19:09:20.938Z,24.55
2024-03-12T19:11:54.172Z,28.77
2024-03-12T19:14:24.676Z,27.93
2024-03-12T19:16:55.752Z,32.80
2024-03-12T19:19:30.489Z,32.80
2024-03-12T19:22:02.513Z,37.17
2024-03-12T19:24:33.894Z,42.13
2024-03-12T19:27:09.623Z,45.05
2024-03-12T19:29:42.210Z,40.28
2024-03-12T19:32:16.750Z,39.50
2024-03-12T19:34:47.470Z,42.75
2024-03-12T19:37:17.693Z,37.42
2024-03-12T19:39:49.216Z,36.60
2024-03-12T19:42:22.484Z,31.17
2024-03-12T19:44:54.203Z,33.33
2024-03-12T19:47:29.906Z,32.35
2024-03-12T19:50:01.844Z,29.10
2024-03-12T19:52:33.841Z,26.10
2024-03-12T19:55:04.127Z,26.05
2024-03-12T19:57:36.910Z,29.05
2024-03-12T20:00:13.622Z,24.52
2024-03-12T20:02:43.830Z,20.60
2024-03-12T20:05:13.651Z,20.63
2024-03-12T20:07:45.749Z,20.80
2024-03-12T20:10:17.420Z,20.65
2024-03-12T20:12:55.695Z,21.33
2024-03-12T20:15:26.251Z,20.88
2024-03-12T20:17:56.462Z,22.95
2024-03-12T20:20:26.571Z,21.98
2024-03-12T20:22:56.938Z,22.20
2024-03-12T20:25:27.765Z,22.05
2024-03-12T20:28:01.496Z,25.25
2024-03-12T20:30:32.168Z,24.55
2024-03-12T20:33:03.048Z,23.05
2024-03-12T20:35:33.671Z,24.20
2024-03-12T20:38:03.820Z,26.85
2024-03-12T20:40:40.869Z,27.90
2024-03-12T20:43:13.541Z,29.77
2024-03-12T20:45:46.557Z,25.05
2024-03-12T20:48:17.181Z,26.95
2024-03-12T20:50:47.391Z,26.05
2024-03-12T20:53:18.881Z,26.92
2024-03-12T20:55:49.273Z,22.63
2024-03-12T20:58:21.674Z,25.77
2024-03-12T21:00:52.521Z,25.75
2024-03-12T21:03:22.750Z,22.92
2024-03-12T21:05:52.996Z,22.45
2024-03-12T21:08:22.799Z,21.48
2024-03-12T21:10:52.708Z,21.65
2024-03-12T21:13:25.720Z,18.48
2024-03-12T21:15:55.596Z,24.02
2024-03-12T21:18:27.978Z,20.23
2024-03-12T21:20:57.893Z,18.63
2024-03-12T21:23:27.758Z,19.02
2024-03-12T21:25:57.473Z,22.27
2024-03-12T21:28:30.799Z,15.55
2024-03-12T21:31:00.712Z,17.25
2024-03-12T21:33:30.752Z,14.52
2024-03-12T21:36:01.032Z,13.18
2024-03-12T21:38:30.789Z,14.77
2024-03-12T21:41:01.660Z,13.82
2024-03-12T21:43:34.064Z,12.45
2024-03-12T21:46:06.285Z,13.50
2024-03-12T21:48:36.142Z,12.50
2024-03-12T21:51:06.756Z,12.25
2024-03-12T21:53:36.617Z,15.77
2024-03-12T21:56:08.613Z,11.32
2024-03-12T21:58:43.754Z,12.88
2024-03-12T22:01:13.962Z,11.20
2024-03-12T22:03:44.151Z,10.70
2024-03-12T22:06:15.501Z,13.07
2024-03-12T22:08:45.639Z,10.73
2024-03-12T22:11:15.859Z,14.68
2024-03-12T22:13:50.868Z,10.77
2024-03-12T22:16:20.798Z,13.30
2024-03-12T22:18:50.655Z,13.65
2024-03-12T22:21:23.885Z,12.45
2024-03-12T22:23:55.008Z,12.33
2024-03-12T22:26:25.368Z,14.88
2024-03-12T22:28:58.297Z,16.50
2024-03-12T22:31:28.125Z,15.85
2024-03-12T22:33:57.989Z,15.00
2024-03-12T22:36:27.739Z,15.07
2024-03-12T22:38:58.065Z,16.35
2024-03-12T22:41:28.594Z,15.20
2024-03-12T22:44:01.704Z,13.73
2024-03-12T22:46:31.894Z,16.30
2024-03-12T22:49:03.998Z,18.17
2024-03-12T22:51:33.790Z,15.15
2024-03-12T22:54:03.823Z,14.70
2024-03-12T22:56:34.224Z,14.30
2024-03-12T22:59:07.810Z,12.70
2024-03-12T23:01:41.146Z,16.48
2024-03-12T23:04:11.672Z,14.88
2024-03-12T23:06:44.535Z,17.45
2024-03-12T23:09:18.731Z,12.65
2024-03-12T23:14:22.638Z,14.68
2024-03-12T23:16:52.554Z,13.82
2024-03-12T23:19:23.043Z,15.20
2024-03-12T23:21:53.253Z,13.07
2024-03-12T23:24:24.306Z,18.50
2024-03-12T23:26:56.240Z,18.42
2024-03-12T23:29:29.154Z,14.05
2024-03-12T23:31:58.940Z,14.30
2024-03-12T23:34:29.083Z,15.70
2024-03-12T23:37:00.314Z,13.82
2024-03-12T23:39:30.407Z,13.57
2024-03-12T23:42:01.321Z,17.50
2024-03-12T23:44:36.467Z,14.68
2024-03-12T23:47:08.725Z,15.82
2024-03-12T23:49:40.483Z,16.08
2024-03-12T23:52:12.383Z,14.98
2024-03-12T23:54:42.782Z,14.60
2024-03-12T23:57:13.996Z,14.45
2024-03-12T23:59:46.545Z,13.75
